createdAt,value
2022-12-09T00:00:06.465Z,94079.00
2022-12-09T00:01:06.177Z,94081.00
2022-12-09T00:02:06.332Z,94081.00
2022-12-09T00:03:06.229Z,94079.00
2022-12-09T00:04:06.075Z,94079.00
2022-12-09T00:05:06.043Z,94081.00
2022-12-09T00:06:05.876Z,94079.00
2022-12-09T00:07:06.195Z,94074.00
2022-12-09T00:08:05.916Z,94078.00
2022-12-09T00:09:06.277Z,94083.00
2022-12-09T00:10:06.361Z,94085.00
2022-12-09T00:11:06.132Z,94079.00
2022-12-09T00:12:05.803Z,94078.00
2022-12-09T00:13:05.868Z,94076.00
2022-12-09T00:14:05.818Z,94079.00
2022-12-09T00:15:06.028Z,94085.00
2022-12-09T00:16:05.982Z,94081.00
2022-12-09T00:17:06.123Z,94078.00
2022-12-09T00:18:05.785Z,94074.00
2022-12-09T00:19:05.918Z,94078.00
2022-12-09T00:20:06.394Z,94083.00
2022-12-09T00:21:05.824Z,94081.00
2022-12-09T00:22:05.742Z,94078.00
2022-12-09T00:23:06.075Z,94076.00
2022-12-09T00:24:05.698Z,94076.00
2022-12-09T00:25:05.742Z,94076.00
2022-12-09T00:26:05.693Z,94076.00
2022-12-09T00:27:05.850Z,94079.00
2022-12-09T00:28:05.651Z,94083.00
2022-12-09T00:29:05.707Z,94085.00
2022-12-09T00:30:06.231Z,94085.00
2022-12-09T00:31:05.768Z,94081.00
2022-12-09T00:32:05.776Z,94089.00
2022-12-09T00:33:05.873Z,94089.00
2022-12-09T00:34:05.632Z,94078.00
2022-12-09T00:35:05.985Z,94078.00
2022-12-09T00:36:05.826Z,94087.00
2022-12-09T00:37:05.607Z,94093.00
2022-12-09T00:38:05.563Z,94078.00
2022-12-09T00:39:05.968Z,94072.00
2022-12-09T00:40:06.167Z,94074.00
2022-12-09T00:41:05.667Z,94072.00
2022-12-09T00:42:05.596Z,94079.00
2022-12-09T00:43:05.783Z,94078.00
2022-12-09T00:44:05.568Z,94072.00
2022-12-09T00:45:05.660Z,94068.00
2022-12-09T00:46:05.652Z,94068.00
2022-12-09T00:47:05.747Z,94068.00
2022-12-09T00:48:05.697Z,94066.00
2022-12-09T00:49:05.614Z,94068.00
2022-12-09T01:09:13.148Z,94044.00
2022-12-09T01:10:12.725Z,94044.00
2022-12-09T01:11:12.774Z,94042.00
2022-12-09T01:12:12.855Z,94038.00
2022-12-09T01:13:12.750Z,94044.00
2022-12-09T01:14:12.747Z,94054.00
2022-12-09T01:15:12.751Z,94056.00
2022-12-09T01:16:12.768Z,94058.00
2022-12-09T01:17:12.891Z,94050.00
2022-12-09T01:18:12.720Z,94046.00
2022-12-09T01:19:12.691Z,94056.00
2022-12-09T01:20:12.812Z,94064.00
2022-12-09T01:21:12.706Z,94062.00
2022-12-09T01:22:12.736Z,94050.00
2022-12-09T01:23:12.697Z,94044.00
2022-12-09T01:24:12.623Z,94056.00
2022-12-09T01:25:12.929Z,94056.00
2022-12-09T01:26:12.763Z,94054.00
2022-12-09T01:27:12.620Z,94044.00
2022-12-09T01:28:12.606Z,94044.00
2022-12-09T01:29:12.657Z,94044.00
2022-12-09T01:30:12.969Z,94044.00
2022-12-09T01:31:12.612Z,94042.00
2022-12-09T01:32:12.643Z,94042.00
2022-12-09T01:33:12.758Z,94038.00
2022-12-09T01:34:12.827Z,94030.00
2022-12-09T01:35:12.851Z,94026.00
2022-12-09T01:36:12.523Z,94028.00
2022-12-09T01:37:12.802Z,94028.00
2022-12-09T01:38:12.580Z,94026.00
2022-12-09T01:39:12.576Z,94021.00
2022-12-09T01:40:12.721Z,94026.00
2022-12-09T01:41:12.785Z,94024.00
2022-12-09T01:42:12.466Z,94024.00
2022-12-09T01:43:12.813Z,94030.00
2022-12-09T01:44:12.451Z,94028.00
2022-12-09T01:45:12.502Z,94028.00
2022-12-09T01:46:12.908Z,94028.00
2022-12-09T01:47:12.815Z,94030.00
2022-12-09T01:48:12.456Z,94030.00
2022-12-09T01:49:12.460Z,94028.00
2022-12-09T01:50:12.564Z,94024.00
2022-12-09T01:51:12.460Z,94021.00
2022-12-09T01:52:12.578Z,94023.00
2022-12-09T01:53:12.456Z,94026.00
2022-12-09T01:54:12.615Z,94023.00
2022-12-09T01:55:12.365Z,94023.00
2022-12-09T01:56:12.307Z,94026.00
2022-12-09T01:57:12.583Z,94028.00
2022-12-09T01:58:12.580Z,94028.00
2022-12-09T01:59:12.336Z,94024.00
2022-12-09T02:01:48.533Z,94019.00
2022-12-09T02:02:48.315Z,94011.00
2022-12-09T02:03:48.599Z,94005.00
2022-12-09T02:04:48.233Z,94005.00
2022-12-09T02:05:48.124Z,94003.00
2022-12-09T02:06:48.305Z,94007.00
2022-12-09T02:07:48.317Z,94003.00
2022-12-09T02:08:48.070Z,93995.00
2022-12-09T02:09:48.289Z,93995.00
2022-12-09T02:10:48.170Z,93997.00
2022-12-09T02:11:48.099Z,93997.00
2022-12-09T02:12:47.953Z,93989.00
2022-12-09T02:13:47.948Z,93979.00
2022-12-09T02:14:47.965Z,93970.00
2022-12-09T02:15:48.152Z,93972.00
2022-12-09T02:16:48.287Z,93976.00
2022-12-09T02:17:47.991Z,93979.00
2022-12-09T02:18:47.862Z,93983.00
2022-12-09T02:19:48.059Z,93977.00
2022-12-09T02:20:47.805Z,93970.00
2022-12-09T02:21:47.849Z,93960.00
2022-12-09T02:22:48.133Z,93954.00
2022-12-09T02:23:47.898Z,93956.00
2022-12-09T02:24:48.045Z,93962.00
2022-12-09T02:25:48.132Z,93962.00
2022-12-09T02:26:47.885Z,93958.00
2022-12-09T02:27:47.884Z,93946.00
2022-12-09T02:28:47.748Z,93932.00
2022-12-09T02:29:47.796Z,93936.00
2022-12-09T02:30:47.838Z,93944.00
2022-12-09T02:31:47.932Z,93944.00
2022-12-09T02:32:47.810Z,93946.00
2022-12-09T02:33:48.107Z,93942.00
2022-12-09T02:34:47.643Z,93936.00
2022-12-09T02:35:47.678Z,93936.00
2022-12-09T02:36:47.867Z,93944.00
2022-12-09T02:37:47.934Z,93950.00
2022-12-09T02:38:47.659Z,93944.00
2022-12-09T02:39:47.843Z,93934.00
2022-12-09T02:40:47.623Z,93930.00
2022-12-09T02:41:47.637Z,93932.00
2022-12-09T02:42:47.735Z,93934.00
2022-12-09T02:43:50.121Z,93934.00
2022-12-09T02:44:47.649Z,93932.00
2022-12-09T02:45:47.578Z,93926.00
2022-12-09T02:46:47.580Z,93922.00
2022-12-09T02:47:47.568Z,93922.00
2022-12-09T02:48:47.942Z,93930.00
2022-12-09T02:49:47.491Z,93930.00
2022-12-09T02:50:47.459Z,93926.00
2022-12-09T02:51:47.874Z,93921.00
2022-12-09T02:52:47.438Z,93922.00
2022-12-09T02:53:47.779Z,93938.00
2022-12-09T02:54:47.669Z,93942.00
2022-12-09T02:55:47.417Z,93936.00
2022-12-09T02:56:47.408Z,93926.00
2022-12-09T02:57:47.429Z,93922.00
2022-12-09T02:58:47.321Z,93922.00
2022-12-09T02:59:47.620Z,93924.00
2022-12-09T03:00:47.415Z,93921.00
2022-12-09T03:01:47.482Z,93913.00
2022-12-09T03:02:47.695Z,93905.00
2022-12-09T03:03:47.554Z,93905.00
2022-12-09T03:04:47.400Z,93905.00
2022-12-09T03:05:47.402Z,93901.00
2022-12-09T03:06:47.228Z,93891.00
2022-12-09T03:07:47.351Z,93893.00
2022-12-09T03:08:47.487Z,93899.00
2022-12-09T03:09:47.219Z,93901.00
2022-12-09T03:10:47.147Z,93899.00
2022-12-09T03:11:47.205Z,93899.00
2022-12-09T03:12:47.381Z,93899.00
2022-12-09T03:13:47.449Z,93901.00
2022-12-09T03:14:47.215Z,93901.00
2022-12-09T03:15:47.410Z,93905.00
2022-12-09T03:16:47.169Z,93905.00
2022-12-09T03:17:47.232Z,93905.00
2022-12-09T03:18:47.211Z,93899.00
2022-12-09T03:19:47.292Z,93895.00
2022-12-09T03:20:47.241Z,93893.00
2022-12-09T03:21:47.319Z,93889.00
2022-12-09T03:22:47.004Z,93889.00
2022-12-09T03:23:47.309Z,93889.00
2022-12-09T03:24:47.343Z,93891.00
2022-12-09T03:25:47.003Z,93889.00
2022-12-09T03:26:46.922Z,93889.00
2022-12-09T03:27:47.193Z,93883.00
2022-12-09T03:28:47.086Z,93885.00
2022-12-09T03:29:46.934Z,93889.00
2022-12-09T03:30:46.850Z,93891.00
2022-12-09T03:31:47.877Z,93889.00
2022-12-09T03:32:47.116Z,93881.00
2022-12-09T03:33:47.159Z,93877.00
2022-12-09T03:34:46.965Z,93874.00
2022-12-09T03:35:46.877Z,93874.00
2022-12-09T03:36:46.820Z,93877.00
2022-12-09T03:37:47.040Z,93872.00
2022-12-09T03:38:46.902Z,93870.00
2022-12-09T03:39:46.986Z,93866.00
2022-12-09T03:40:47.053Z,93866.00
2022-12-09T03:41:46.980Z,93862.00
2022-12-09T03:42:46.691Z,93864.00
2022-12-09T03:43:46.827Z,93862.00
2022-12-09T03:44:47.000Z,93860.00
2022-12-09T03:45:47.178Z,93852.00
2022-12-09T03:46:46.818Z,93852.00
2022-12-09T03:47:46.845Z,93860.00
2022-12-09T03:48:46.640Z,93860.00
2022-12-09T03:49:47.028Z,93852.00
2022-12-09T03:50:46.637Z,93860.00
2022-12-09T03:51:46.790Z,93860.00
2022-12-09T03:52:46.597Z,93862.00
2022-12-09T03:53:46.772Z,93860.00
2022-12-09T03:54:46.568Z,93860.00
2022-12-09T03:55:46.887Z,93860.00
2022-12-09T03:56:46.843Z,93860.00
2022-12-09T03:57:46.523Z,93866.00
2022-12-09T03:58:46.541Z,93868.00
2022-12-09T03:59:46.461Z,93866.00
2022-12-09T04:00:46.491Z,93862.00
2022-12-09T04:01:46.561Z,93848.00
2022-12-09T04:02:46.462Z,93850.00
2022-12-09T04:03:46.609Z,93848.00
2022-12-09T04:04:46.742Z,93850.00
2022-12-09T04:05:46.360Z,93848.00
2022-12-09T04:06:46.389Z,93848.00
2022-12-09T04:07:46.516Z,93844.00
2022-12-09T04:08:46.456Z,93844.00
2022-12-09T04:09:46.517Z,93842.00
2022-12-09T04:10:46.252Z,93844.00
2022-12-09T04:11:46.412Z,93844.00
2022-12-09T04:12:46.230Z,93842.00
2022-12-09T04:13:46.275Z,93840.00
2022-12-09T04:14:46.454Z,93836.00
2022-12-09T04:15:46.299Z,93832.00
2022-12-09T04:16:46.358Z,93834.00
2022-12-09T04:17:46.240Z,93832.00
2022-12-09T04:18:46.641Z,93829.00
2022-12-09T04:19:46.156Z,93829.00
2022-12-09T04:20:46.129Z,93830.00
2022-12-09T04:21:46.152Z,93829.00
2022-12-09T04:22:46.310Z,93832.00
2022-12-09T04:23:46.270Z,93834.00
2022-12-09T04:24:46.095Z,93832.00
2022-12-09T04:25:46.136Z,93830.00
2022-12-09T04:26:46.021Z,93827.00
2022-12-09T04:27:46.192Z,93825.00
2022-12-09T04:28:46.060Z,93819.00
2022-12-09T04:29:46.425Z,93813.00
2022-12-09T04:30:46.381Z,93811.00
2022-12-09T04:31:46.430Z,93811.00
2022-12-09T04:32:46.201Z,93813.00
2022-12-09T04:33:45.965Z,93811.00
2022-12-09T04:34:46.153Z,93807.00
2022-12-09T04:35:46.233Z,93801.00
2022-12-09T04:36:46.201Z,93797.00
2022-12-09T04:37:46.193Z,93795.00
2022-12-09T04:38:45.954Z,93795.00
2022-12-09T04:39:46.189Z,93795.00
2022-12-09T04:40:46.034Z,93793.00
2022-12-09T04:41:45.994Z,93793.00
2022-12-09T04:42:46.118Z,93791.00
2022-12-09T04:43:45.918Z,93789.00
2022-12-09T04:44:45.994Z,93789.00
2022-12-09T04:45:45.964Z,93789.00
2022-12-09T04:46:45.976Z,93785.00
2022-12-09T04:47:45.976Z,93789.00
2022-12-09T04:48:45.861Z,93785.00
2022-12-09T04:49:46.081Z,93783.00
2022-12-09T04:50:46.108Z,93782.00
2022-12-09T04:51:45.918Z,93782.00
2022-12-09T04:52:46.228Z,93780.00
2022-12-09T04:53:45.880Z,93778.00
2022-12-09T04:54:45.816Z,93776.00
2022-12-09T04:55:46.160Z,93766.00
2022-12-09T04:56:46.219Z,93768.00
2022-12-09T04:57:46.059Z,93764.00
2022-12-09T04:58:45.811Z,93764.00
2022-12-09T04:59:45.897Z,93756.00
2022-12-09T05:00:46.545Z,93760.00
2022-12-09T05:01:45.933Z,93756.00
2022-12-09T05:02:46.139Z,93754.00
2022-12-09T05:03:45.962Z,93752.00
2022-12-09T05:04:46.089Z,93760.00
2022-12-09T05:05:45.900Z,93766.00
2022-12-09T05:06:45.803Z,93764.00
2022-12-09T05:07:46.016Z,93764.00
2022-12-09T05:08:45.897Z,93762.00
2022-12-09T05:09:45.847Z,93760.00
2022-12-09T05:10:46.070Z,93762.00
2022-12-09T05:11:45.823Z,93760.00
2022-12-09T05:12:45.917Z,93758.00
2022-12-09T05:13:46.030Z,93756.00
2022-12-09T05:14:45.933Z,93754.00
2022-12-09T05:15:45.775Z,93754.00
2022-12-09T05:16:45.707Z,93752.00
2022-12-09T05:17:46.106Z,93744.00
2022-12-09T05:18:45.870Z,93746.00
2022-12-09T05:19:45.825Z,93754.00
2022-12-09T05:20:45.575Z,93756.00
2022-12-09T05:21:45.756Z,93752.00
2022-12-09T05:22:45.679Z,93742.00
2022-12-09T05:23:45.786Z,93736.00
2022-12-09T05:24:45.693Z,93742.00
2022-12-09T05:25:45.529Z,93738.00
2022-12-09T05:26:45.713Z,93742.00
2022-12-09T05:27:45.562Z,93748.00
2022-12-09T05:28:45.687Z,93758.00
2022-12-09T05:29:45.809Z,93768.00
2022-12-09T05:30:45.899Z,93758.00
2022-12-09T05:31:45.596Z,93744.00
2022-12-09T05:32:45.543Z,93742.00
2022-12-09T05:33:45.833Z,93754.00
2022-12-09T05:34:45.449Z,93762.00
2022-12-09T05:35:52.764Z,93762.00
2022-12-09T05:36:46.794Z,93752.00
2022-12-09T05:37:45.870Z,93744.00
2022-12-09T05:38:45.778Z,93744.00
2022-12-09T05:39:45.409Z,93750.00
2022-12-09T05:40:45.444Z,93754.00
2022-12-09T05:41:45.626Z,93748.00
2022-12-09T05:42:45.717Z,93734.00
2022-12-09T05:43:45.828Z,93727.00
2022-12-09T05:44:45.483Z,93728.00
2022-12-09T05:45:45.556Z,93734.00
2022-12-09T05:46:45.586Z,93742.00
2022-12-09T05:47:45.590Z,93740.00
2022-12-09T05:48:45.877Z,93742.00
2022-12-09T05:49:45.495Z,93736.00
2022-12-09T05:50:45.592Z,93738.00
2022-12-09T05:51:45.509Z,93744.00
2022-12-09T05:52:45.589Z,93748.00
2022-12-09T05:53:45.623Z,93746.00
2022-12-09T05:54:45.434Z,93744.00
2022-12-09T05:55:45.702Z,93740.00
2022-12-09T05:56:48.326Z,93732.00
2022-12-09T05:57:45.369Z,93734.00
2022-12-09T05:58:45.604Z,93736.00
2022-12-09T05:59:45.422Z,93734.00
2022-12-09T06:00:45.344Z,93732.00
2022-12-09T06:01:45.275Z,93725.00
2022-12-09T06:02:45.425Z,93721.00
2022-12-09T06:03:45.607Z,93723.00
2022-12-09T06:04:45.658Z,93732.00
2022-12-09T06:05:45.277Z,93736.00
2022-12-09T06:06:45.386Z,93742.00
2022-12-09T06:07:45.660Z,93742.00
2022-12-09T06:08:45.213Z,93742.00
2022-12-09T06:09:45.272Z,93744.00
2022-12-09T06:10:45.545Z,93736.00
2022-12-09T06:11:45.076Z,93734.00
2022-12-09T06:12:45.415Z,93730.00
2022-12-09T06:13:45.314Z,93730.00
2022-12-09T06:14:45.393Z,93732.00
2022-12-09T06:15:45.437Z,93732.00
2022-12-09T06:16:45.361Z,93736.00
2022-12-09T06:17:45.370Z,93736.00
2022-12-09T06:18:45.259Z,93744.00
2022-12-09T06:19:45.348Z,93744.00
2022-12-09T06:20:44.945Z,93738.00
2022-12-09T06:21:44.970Z,93734.00
2022-12-09T06:22:45.163Z,93732.00
2022-12-09T06:23:44.968Z,93734.00
2022-12-09T06:24:45.023Z,93736.00
2022-12-09T06:25:44.779Z,93740.00
2022-12-09T06:26:45.009Z,93734.00
2022-12-09T06:27:45.110Z,93732.00
2022-12-09T06:28:45.134Z,93736.00
2022-12-09T06:29:45.104Z,93742.00
2022-12-09T06:30:44.767Z,93742.00
2022-12-09T06:31:45.031Z,93734.00
2022-12-09T06:32:44.787Z,93728.00
2022-12-09T06:34:00.495Z,93728.00
2022-12-09T06:34:45.834Z,93734.00
2022-12-09T06:35:44.771Z,93738.00
2022-12-09T06:36:44.672Z,93732.00
2022-12-09T06:37:44.832Z,93719.00
2022-12-09T06:38:44.587Z,93719.00
2022-12-09T06:39:44.892Z,93728.00
2022-12-09T06:40:44.793Z,93725.00
2022-12-09T06:41:44.553Z,93715.00
2022-12-09T06:42:44.525Z,93701.00
2022-12-09T06:43:44.755Z,93707.00
2022-12-09T06:44:44.865Z,93717.00
2022-12-09T06:45:44.556Z,93721.00
2022-12-09T06:46:45.015Z,93705.00
2022-12-09T06:47:44.433Z,93685.00
2022-12-09T06:48:44.631Z,93695.00
2022-12-09T06:49:44.431Z,93717.00
2022-12-09T06:50:44.683Z,93725.00
2022-12-09T06:51:44.719Z,93715.00
2022-12-09T06:52:44.287Z,93709.00
2022-12-09T06:53:44.299Z,93715.00
2022-12-09T06:54:44.392Z,93721.00
2022-12-09T06:55:44.186Z,93715.00
2022-12-09T06:56:44.259Z,93715.00
2022-12-09T06:57:44.521Z,93713.00
2022-12-09T06:58:44.508Z,93711.00
2022-12-09T06:59:44.108Z,93707.00
2022-12-09T07:00:44.478Z,93707.00
2022-12-09T07:01:44.727Z,93711.00
2022-12-09T07:02:44.489Z,93709.00
2022-12-09T07:03:44.280Z,93705.00
2022-12-09T07:04:44.461Z,93709.00
2022-12-09T07:05:44.432Z,93711.00
2022-12-09T07:06:44.490Z,93709.00
2022-12-09T07:07:44.320Z,93701.00
2022-12-09T07:08:44.355Z,93703.00
2022-12-09T07:09:44.290Z,93709.00
2022-12-09T07:10:43.899Z,93709.00
2022-12-09T07:11:44.013Z,93701.00
2022-12-09T07:12:44.133Z,93695.00
2022-12-09T07:13:43.751Z,93695.00
2022-12-09T07:14:43.780Z,93699.00
2022-12-09T07:15:43.914Z,93701.00
2022-12-09T07:16:43.795Z,93699.00
2022-12-09T07:17:43.960Z,93689.00
2022-12-09T07:18:44.003Z,93687.00
2022-12-09T07:19:44.071Z,93685.00
2022-12-09T07:20:43.592Z,93683.00
2022-12-09T07:21:43.715Z,93689.00
2022-12-09T07:22:43.709Z,93693.00
2022-12-09T07:23:43.540Z,93693.00
2022-12-09T07:24:43.883Z,93695.00
2022-12-09T07:25:43.465Z,93701.00
2022-12-09T07:26:43.508Z,93701.00
2022-12-09T07:27:43.611Z,93699.00
2022-12-09T07:28:43.563Z,93697.00
2022-12-09T07:29:43.397Z,93695.00
2022-12-09T07:30:43.400Z,93689.00
2022-12-09T07:31:43.366Z,93681.00
2022-12-09T07:32:43.737Z,93681.00
2022-12-09T07:33:43.752Z,93689.00
2022-12-09T07:34:43.395Z,93695.00
2022-12-09T07:35:43.316Z,93691.00
2022-12-09T07:36:43.358Z,93678.00
2022-12-09T07:37:43.318Z,93678.00
2022-12-09T07:38:43.342Z,93689.00
2022-12-09T07:39:43.089Z,93691.00
2022-12-09T07:40:43.100Z,93691.00
2022-12-09T07:41:43.401Z,93685.00
2022-12-09T07:42:42.993Z,93683.00
2022-12-09T07:43:43.337Z,93685.00
2022-12-09T07:44:43.073Z,93685.00
2022-12-09T07:45:43.393Z,93689.00
2022-12-09T07:46:43.140Z,93689.00
2022-12-09T07:47:43.237Z,93687.00
2022-12-09T07:48:43.514Z,93678.00
2022-12-09T07:49:42.996Z,93678.00
2022-12-09T07:50:42.842Z,93672.00
2022-12-09T07:51:42.778Z,93670.00
2022-12-09T07:52:42.843Z,93670.00
2022-12-09T07:53:43.124Z,93666.00
2022-12-09T07:54:43.004Z,93670.00
2022-12-09T07:55:42.753Z,93666.00
2022-12-09T07:56:42.866Z,93662.00
2022-12-09T07:57:42.978Z,93660.00
2022-12-09T07:58:43.010Z,93660.00
2022-12-09T07:59:42.823Z,93668.00
2022-12-09T08:00:42.839Z,93670.00
2022-12-09T08:01:49.890Z,93660.00
2022-12-09T08:02:42.817Z,93652.00
2022-12-09T08:03:42.780Z,93652.00
2022-12-09T08:04:42.588Z,93660.00
2022-12-09T08:05:42.648Z,93666.00
2022-12-09T08:06:42.619Z,93672.00
2022-12-09T08:07:44.473Z,93670.00
2022-12-09T08:08:43.125Z,93658.00
2022-12-09T08:09:43.062Z,93650.00
2022-12-09T08:10:42.637Z,93658.00
2022-12-09T08:11:42.690Z,93666.00
2022-12-09T08:12:42.553Z,93664.00
2022-12-09T08:13:42.614Z,93658.00
2022-12-09T08:14:42.767Z,93654.00
2022-12-09T08:15:42.807Z,93658.00
2022-12-09T08:16:43.283Z,93666.00
2022-12-09T08:17:42.756Z,93664.00
2022-12-09T08:18:42.922Z,93660.00
2022-12-09T08:19:42.813Z,93654.00
2022-12-09T08:20:42.817Z,93658.00
2022-12-09T08:21:42.555Z,93658.00
2022-12-09T08:22:42.625Z,93660.00
2022-12-09T08:23:42.663Z,93658.00
2022-12-09T08:24:42.575Z,93656.00
2022-12-09T08:25:42.540Z,93656.00
2022-12-09T08:26:42.423Z,93654.00
2022-12-09T08:27:42.501Z,93654.00
2022-12-09T08:28:42.280Z,93654.00
2022-12-09T08:29:42.143Z,93652.00
2022-12-09T08:30:42.450Z,93658.00
2022-12-09T08:31:42.750Z,93662.00
2022-12-09T08:32:42.564Z,93666.00
2022-12-09T08:33:42.404Z,93668.00
2022-12-09T08:34:42.115Z,93666.00
2022-12-09T08:35:42.409Z,93660.00
2022-12-09T08:36:42.464Z,93650.00
2022-12-09T08:37:41.896Z,93642.00
2022-12-09T08:38:42.056Z,93652.00
2022-12-09T08:39:41.879Z,93664.00
2022-12-09T08:40:42.339Z,93662.00
2022-12-09T08:41:41.902Z,93650.00
2022-12-09T08:42:41.875Z,93644.00
2022-12-09T08:43:42.107Z,93642.00
2022-12-09T08:44:42.259Z,93642.00
2022-12-09T08:45:41.872Z,93636.00
2022-12-09T08:46:41.851Z,93636.00
2022-12-09T08:47:41.758Z,93640.00
2022-12-09T08:48:41.918Z,93640.00
2022-12-09T08:49:41.957Z,93638.00
2022-12-09T08:50:42.096Z,93634.00
2022-12-09T08:51:42.026Z,93628.00
2022-12-09T08:52:41.678Z,93634.00
2022-12-09T08:53:42.117Z,93628.00
2022-12-09T08:54:41.899Z,93625.00
2022-12-09T08:55:42.067Z,93625.00
2022-12-09T08:56:41.583Z,93628.00
2022-12-09T08:57:41.807Z,93628.00
2022-12-09T08:58:41.519Z,93628.00
2022-12-09T08:59:45.242Z,93625.00
2022-12-09T09:00:41.764Z,93626.00
2022-12-09T09:01:41.557Z,93628.00
2022-12-09T09:02:42.016Z,93628.00
2022-12-09T09:03:41.814Z,93632.00
2022-12-09T09:04:42.279Z,93623.00
2022-12-09T09:05:41.721Z,93623.00
2022-12-09T09:06:41.670Z,93625.00
2022-12-09T09:07:41.777Z,93626.00
2022-12-09T09:08:41.425Z,93630.00
2022-12-09T09:09:41.517Z,93628.00
2022-12-09T09:10:41.614Z,93628.00
2022-12-09T09:11:41.498Z,93625.00
2022-12-09T09:12:43.861Z,93628.00
2022-12-09T09:13:41.548Z,93634.00
2022-12-09T09:14:41.362Z,93636.00
2022-12-09T09:15:41.416Z,93626.00
2022-12-09T09:16:41.886Z,93628.00
2022-12-09T09:17:45.362Z,93628.00
2022-12-09T09:18:42.811Z,93628.00
2022-12-09T09:19:41.650Z,93628.00
2022-12-09T09:20:41.516Z,93632.00
2022-12-09T09:21:41.703Z,93626.00
2022-12-09T09:22:41.694Z,93625.00
2022-12-09T09:23:41.423Z,93626.00
2022-12-09T09:24:41.191Z,93634.00
2022-12-09T09:25:41.479Z,93638.00
2022-12-09T09:26:41.616Z,93638.00
2022-12-09T09:27:41.467Z,93630.00
2022-12-09T09:28:41.248Z,93628.00
2022-12-09T09:29:41.086Z,93621.00
2022-12-09T09:30:41.492Z,93621.00
2022-12-09T09:31:41.367Z,93623.00
2022-12-09T09:32:41.421Z,93626.00
2022-12-09T09:33:41.585Z,93628.00
2022-12-09T09:34:41.125Z,93628.00
2022-12-09T09:35:41.057Z,93630.00
2022-12-09T09:36:41.396Z,93628.00
2022-12-09T09:37:41.044Z,93623.00
2022-12-09T09:38:41.153Z,93621.00
2022-12-09T09:39:41.287Z,93621.00
2022-12-09T09:40:41.453Z,93621.00
2022-12-09T09:41:41.112Z,93625.00
2022-12-09T09:42:41.076Z,93623.00
2022-12-09T09:43:40.938Z,93617.00
2022-12-09T09:44:41.154Z,93603.00
2022-12-09T09:45:41.073Z,93605.00
2022-12-09T09:46:41.474Z,93611.00
2022-12-09T09:47:41.047Z,93619.00
2022-12-09T09:48:41.403Z,93615.00
2022-12-09T09:49:41.338Z,93609.00
2022-12-09T09:50:40.966Z,93591.00
2022-12-09T09:51:40.896Z,93584.00
2022-12-09T09:52:40.994Z,93582.00
2022-12-09T09:53:41.139Z,93589.00
2022-12-09T09:54:40.913Z,93593.00
2022-12-09T09:55:40.789Z,93591.00
2022-12-09T09:56:41.103Z,93588.00
2022-12-09T09:57:41.153Z,93584.00
2022-12-09T09:58:41.265Z,93586.00
2022-12-09T09:59:41.177Z,93582.00
2022-12-09T10:00:41.413Z,93578.00
2022-12-09T10:01:41.321Z,93576.00
2022-12-09T10:02:40.996Z,93574.00
2022-12-09T10:03:41.090Z,93574.00
2022-12-09T10:04:41.349Z,93576.00
2022-12-09T10:05:41.331Z,93574.00
2022-12-09T10:06:41.370Z,93576.00
2022-12-09T10:07:41.048Z,93574.00
2022-12-09T10:08:40.904Z,93570.00
2022-12-09T10:09:41.240Z,93560.00
2022-12-09T10:10:41.217Z,93556.00
2022-12-09T10:11:41.013Z,93544.00
2022-12-09T10:12:41.369Z,93541.00
2022-12-09T10:13:40.840Z,93541.00
2022-12-09T10:14:40.990Z,93546.00
2022-12-09T10:15:40.861Z,93552.00
2022-12-09T10:16:40.777Z,93554.00
2022-12-09T10:17:41.119Z,93554.00
2022-12-09T10:18:40.695Z,93544.00
2022-12-09T10:19:41.003Z,93541.00
2022-12-09T10:20:40.749Z,93539.00
2022-12-09T10:21:41.013Z,93541.00
2022-12-09T10:22:40.731Z,93542.00
2022-12-09T10:23:40.580Z,93541.00
2022-12-09T10:24:40.968Z,93535.00
2022-12-09T10:25:40.895Z,93533.00
2022-12-09T10:26:40.659Z,93529.00
2022-12-09T10:27:40.554Z,93529.00
2022-12-09T10:28:40.548Z,93531.00
2022-12-09T10:29:40.849Z,93533.00
2022-12-09T10:30:44.681Z,93529.00
2022-12-09T10:31:40.465Z,93527.00
2022-12-09T10:32:40.676Z,93523.00
2022-12-09T10:33:40.902Z,93521.00
2022-12-09T10:34:40.912Z,93517.00
2022-12-09T10:35:40.513Z,93519.00
2022-12-09T10:36:40.755Z,93529.00
2022-12-09T10:37:40.357Z,93535.00
2022-12-09T10:38:40.506Z,93533.00
2022-12-09T10:39:40.276Z,93529.00
2022-12-09T10:40:40.319Z,93519.00
2022-12-09T10:41:40.283Z,93519.00
2022-12-09T10:42:40.413Z,93525.00
2022-12-09T10:43:40.359Z,93523.00
2022-12-09T10:44:40.473Z,93519.00
2022-12-09T10:46:08.349Z,93511.00
2022-12-09T10:46:41.377Z,93513.00
2022-12-09T10:47:40.308Z,93517.00
2022-12-09T10:48:40.427Z,93519.00
2022-12-09T10:49:40.253Z,93511.00
2022-12-09T10:50:40.493Z,93507.00
2022-12-09T10:51:40.410Z,93503.00
2022-12-09T10:52:40.481Z,93499.00
2022-12-09T10:53:40.188Z,93499.00
2022-12-09T10:54:40.321Z,93497.00
2022-12-09T10:55:40.465Z,93493.00
2022-12-09T10:56:40.146Z,93486.00
2022-12-09T10:57:40.108Z,93480.00
2022-12-09T10:58:40.106Z,93478.00
2022-12-09T10:59:40.173Z,93474.00
2022-12-09T11:00:40.344Z,93474.00
2022-12-09T11:01:40.715Z,93476.00
2022-12-09T11:02:40.522Z,93482.00
2022-12-09T11:03:40.631Z,93480.00
2022-12-09T11:04:40.938Z,93474.00
2022-12-09T11:05:40.397Z,93474.00
2022-12-09T11:06:40.773Z,93472.00
2022-12-09T11:07:41.019Z,93476.00
2022-12-09T11:08:40.807Z,93470.00
2022-12-09T11:09:40.724Z,93470.00
2022-12-09T11:10:41.164Z,93466.00
2022-12-09T11:11:40.603Z,93468.00
2022-12-09T11:12:41.740Z,93464.00
2022-12-09T11:13:40.642Z,93456.00
2022-12-09T11:14:40.731Z,93456.00
2022-12-09T11:15:40.680Z,93450.00
2022-12-09T11:16:40.882Z,93448.00
2022-12-09T11:17:40.739Z,93448.00
2022-12-09T11:18:41.062Z,93452.00
2022-12-09T11:19:40.862Z,93452.00
2022-12-09T11:20:40.979Z,93456.00
2022-12-09T11:21:42.254Z,93454.00
2022-12-09T11:22:41.287Z,93454.00
2022-12-09T11:23:41.022Z,93456.00
2022-12-09T11:24:40.828Z,93464.00
2022-12-09T11:25:40.640Z,93460.00
2022-12-09T11:26:41.316Z,93454.00
2022-12-09T11:27:40.688Z,93448.00
2022-12-09T11:28:41.205Z,93442.00
2022-12-09T11:29:41.044Z,93448.00
2022-12-09T11:30:52.269Z,93450.00
2022-12-09T11:31:41.856Z,93446.00
2022-12-09T11:32:40.908Z,93439.00
2022-12-09T11:33:40.952Z,93437.00
2022-12-09T11:34:40.850Z,93439.00
2022-12-09T11:35:41.095Z,93433.00
2022-12-09T11:36:44.013Z,93429.00
2022-12-09T11:37:40.618Z,93429.00
2022-12-09T11:38:40.592Z,93431.00
2022-12-09T11:39:40.621Z,93429.00
2022-12-09T11:40:40.568Z,93423.00
2022-12-09T11:41:40.603Z,93423.00
2022-12-09T11:42:40.576Z,93427.00
2022-12-09T11:43:40.642Z,93431.00
2022-12-09T11:44:40.573Z,93429.00
2022-12-09T11:45:40.655Z,93423.00
2022-12-09T11:46:40.604Z,93419.00
2022-12-09T11:48:20.329Z,93411.00
2022-12-09T11:48:43.814Z,93413.00
2022-12-09T11:49:40.530Z,93411.00
2022-12-09T11:50:40.605Z,93415.00
2022-12-09T11:51:40.542Z,93415.00
2022-12-09T11:52:40.541Z,93417.00
2022-12-09T11:53:40.516Z,93411.00
2022-12-09T11:54:40.531Z,93413.00
2022-12-09T11:55:40.506Z,93417.00
2022-12-09T11:56:40.510Z,93413.00
2022-12-09T11:57:40.466Z,93409.00
2022-12-09T11:58:40.508Z,93403.00
2022-12-09T11:59:40.476Z,93399.00
2022-12-09T12:00:40.456Z,93401.00
2022-12-09T12:01:40.496Z,93403.00
2022-12-09T12:02:40.480Z,93403.00
2022-12-09T12:03:40.395Z,93403.00
2022-12-09T12:04:40.424Z,93403.00